Time;durP1;ratioP1;P1;durP2;ratioP2;P2;SDS_P1;SDS_P2;PMS_P1;PMS_P2;Temp;Humidity;BMP_temperature;BMP_pressure;BME280_temperature;BME280_humidity;BME280_pressure;Samples;Min_cycle;Max_cycle;Signal;HPM_P1;HPM_P2
2023/12/25 00:02:11;;;;;;;14.68;1.73;;;11.90;99.90;;;;;;5039572;28;20113;-66
2023/12/25 00:04:37;;;;;;;16.95;1.58;;;12.00;99.90;;;;;;5037865;28;20052;-66
2023/12/25 00:07:03;;;;;;;11.93;1.85;;;12.00;99.90;;;;;;5055777;28;20479;-66
2023/12/25 00:09:28;;;;;;;12.40;1.60;;;12.10;99.90;;;;;;5037594;28;20125;-66
2023/12/25 00:11:54;;;;;;;12.25;1.38;;;12.20;99.90;;;;;;5032864;28;20283;-66
2023/12/25 00:14:20;;;;;;;10.27;1.40;;;12.00;99.90;;;;;;5041914;28;20051;-67
2023/12/25 00:16:46;;;;;;;11.13;1.15;;;12.00;99.90;;;;;;5036257;28;20058;-66
2023/12/25 00:19:12;;;;;;;10.52;1.08;;;12.00;99.90;;;;;;5037930;28;20045;-68
2023/12/25 00:21:38;;;;;;;10.50;0.80;;;12.00;99.90;;;;;;5035270;28;20076;-67
2023/12/25 00:24:04;;;;;;;16.20;1.50;;;12.10;99.90;;;;;;5017934;28;20800;-67
2023/12/25 00:26:30;;;;;;;13.93;1.02;;;12.00;99.90;;;;;;5057129;28;20660;-67
2023/12/25 00:28:56;;;;;;;10.02;1.48;;;12.10;99.90;;;;;;5056558;28;20044;-67
2023/12/25 00:31:21;;;;;;;11.27;1.05;;;12.00;99.90;;;;;;5055987;28;20435;-67
2023/12/25 00:33:47;;;;;;;12.48;1.88;;;12.00;99.90;;;;;;5054471;28;20135;-66
2023/12/25 00:36:13;;;;;;;13.48;1.08;;;12.00;99.90;;;;;;5055320;28;20091;-67
2023/12/25 00:38:39;;;;;;;12.52;1.42;;;11.90;99.90;;;;;;5041398;28;20503;-67
2023/12/25 00:41:05;;;;;;;12.93;1.20;;;12.00;99.90;;;;;;5037319;28;20044;-67
2023/12/25 00:43:30;;;;;;;14.68;1.63;;;11.80;99.90;;;;;;5038442;28;20434;-66
2023/12/25 00:45:58;;;;;;;14.10;1.65;;;11.90;99.90;;;;;;5036801;28;20096;-67
2023/12/25 00:48:23;;;;;;;13.30;1.67;;;12.00;99.90;;;;;;5040628;28;20029;-67
2023/12/25 00:50:49;;;;;;;12.27;1.20;;;11.80;99.90;;;;;;5037985;28;20308;-66
2023/12/25 00:53:15;;;;;;;11.27;1.30;;;11.80;99.90;;;;;;5052453;28;20036;-66
2023/12/25 00:55:41;;;;;;;12.73;1.15;;;11.90;99.90;;;;;;5019512;28;20047;-68
2023/12/25 00:58:06;;;;;;;14.75;1.58;;;12.00;99.90;;;;;;5054131;28;20059;-68
2023/12/25 01:00:32;;;;;;;14.20;0.93;;;11.90;99.90;;;;;;5053744;28;20048;-66
2023/12/25 01:02:59;;;;;;;15.65;1.88;;;11.90;99.90;;;;;;5056048;28;20048;-67
2023/12/25 01:05:24;;;;;;;12.98;0.80;;;11.90;99.90;;;;;;5020013;28;20568;-66
2023/12/25 01:07:50;;;;;;;13.48;1.40;;;11.80;99.90;;;;;;5036399;28;20036;-67
2023/12/25 01:10:16;;;;;;;12.00;1.00;;;12.00;99.90;;;;;;5056308;28;20040;-66
2023/12/25 01:12:41;;;;;;;15.85;1.60;;;11.90;99.90;;;;;;5038216;28;20078;-67
2023/12/25 01:15:08;;;;;;;11.00;1.13;;;12.00;99.90;;;;;;5037819;28;20491;-66
2023/12/25 01:17:34;;;;;;;10.43;0.93;;;12.00;99.90;;;;;;5054491;28;20036;-66
2023/12/25 01:20:00;;;;;;;9.80;1.10;;;12.00;99.90;;;;;;5018678;28;20044;-66
2023/12/25 01:22:26;;;;;;;8.55;1.00;;;12.10;99.90;;;;;;5036276;28;20516;-67
2023/12/25 01:24:51;;;;;;;5.05;0.52;;;12.10;99.90;;;;;;5060035;28;20048;-66
2023/12/25 01:27:17;;;;;;;8.80;0.70;;;12.10;99.90;;;;;;5039139;28;20552;-66
2023/12/25 01:29:43;;;;;;;10.50;0.80;;;12.20;99.90;;;;;;5055701;28;20373;-68
2023/12/25 01:32:08;;;;;;;12.77;1.10;;;12.10;99.90;;;;;;5042285;28;20497;-67
2023/12/25 01:34:37;;;;;;;10.43;1.27;;;12.10;99.90;;;;;;5056281;28;20052;-67
2023/12/25 01:37:04;;;;;;;8.98;0.88;;;12.00;99.90;;;;;;5043047;28;20040;-66
2023/12/25 01:39:30;;;;;;;7.65;1.02;;;12.00;99.90;;;;;;5041966;28;20297;-66
2023/12/25 01:41:56;;;;;;;7.35;0.80;;;12.00;99.90;;;;;;5073298;28;20048;-67
2023/12/25 01:44:21;;;;;;;9.00;0.60;;;12.00;99.90;;;;;;5059053;28;20576;-66
2023/12/25 01:46:47;;;;;;;7.82;0.75;;;11.90;99.90;;;;;;5056895;28;20036;-66
2023/12/25 01:49:13;;;;;;;11.52;1.00;;;11.80;99.90;;;;;;5016652;28;20455;-67
2023/12/25 01:51:39;;;;;;;8.20;0.70;;;11.90;99.90;;;;;;5055458;28;20131;-66
2023/12/25 01:54:07;;;;;;;11.75;1.20;;;11.80;99.90;;;;;;5041018;28;20193;-67
2023/12/25 01:56:33;;;;;;;8.82;0.77;;;11.80;99.90;;;;;;5059286;28;20356;-67
2023/12/25 01:58:59;;;;;;;7.40;0.93;;;11.80;99.90;;;;;;5060204;28;20505;-67
2023/12/25 02:01:25;;;;;;;11.52;1.08;;;11.70;99.90;;;;;;5056017;28;20106;-66
2023/12/25 02:03:51;;;;;;;10.90;1.02;;;11.70;99.90;;;;;;5056183;28;20048;-68
2023/12/25 02:06:17;;;;;;;9.88;1.20;;;11.80;99.90;;;;;;5055403;28;20055;-67
2023/12/25 02:08:43;;;;;;;7.80;0.65;;;11.80;99.90;;;;;;5055020;28;20197;-67
2023/12/25 02:11:09;;;;;;;11.25;1.23;;;11.70;99.90;;;;;;5019299;28;20509;-67
2023/12/25 02:13:34;;;;;;;7.95;0.98;;;11.70;99.90;;;;;;5057008;28;20055;-67
2023/12/25 02:16:03;;;;;;;11.55;1.05;;;11.70;99.90;;;;;;5057724;28;20048;-66
2023/12/25 02:18:29;;;;;;;9.20;1.02;;;11.60;99.90;;;;;;5055343;28;20047;-66
2023/12/25 02:20:56;;;;;;;7.72;1.00;;;11.70;99.90;;;;;;5040177;28;20053;-66
2023/12/25 02:23:25;;;;;;;9.05;1.10;;;11.60;99.90;;;;;;5057027;28;20040;-66
2023/12/25 02:25:56;;;;;;;10.98;1.02;;;11.60;99.90;;;;;;5057295;28;20542;-66
2023/12/25 02:28:24;;;;;;;10.65;0.60;;;11.50;99.90;;;;;;5056554;28;20037;-67
2023/12/25 02:30:53;;;;;;;11.48;1.13;;;11.50;99.90;;;;;;5055980;28;20498;-66
2023/12/25 02:33:19;;;;;;;11.77;0.70;;;11.50;99.90;;;;;;5042546;28;20546;-66
2023/12/25 02:35:45;;;;;;;10.63;0.90;;;11.40;99.90;;;;;;5059519;28;20040;-66
2023/12/25 02:38:11;;;;;;;9.55;1.02;;;11.50;99.90;;;;;;5055933;28;20117;-67
2023/12/25 02:40:39;;;;;;;11.77;1.40;;;11.40;99.90;;;;;;5038233;28;20048;-66
2023/12/25 02:43:09;;;;;;;7.05;0.65;;;11.40;99.90;;;;;;5055893;28;20212;-67
2023/12/25 02:45:35;;;;;;;8.65;0.77;;;11.40;99.90;;;;;;5038429;28;20135;-66
2023/12/25 02:48:01;;;;;;;10.80;1.35;;;11.40;99.90;;;;;;5055289;28;20506;-66
2023/12/25 02:50:27;;;;;;;12.43;1.10;;;11.40;99.90;;;;;;5057732;28;20116;-67
2023/12/25 02:52:54;;;;;;;10.15;1.40;;;11.40;99.90;;;;;;5037569;28;20059;-66
2023/12/25 02:55:19;;;;;;;11.57;1.10;;;11.30;99.90;;;;;;5055049;28;20117;-66
2023/12/25 02:57:47;;;;;;;8.65;1.42;;;11.30;99.90;;;;;;5057223;28;20048;-66
2023/12/25 03:00:13;;;;;;;11.65;1.45;;;11.30;99.90;;;;;;5055677;28;20339;-66
2023/12/25 03:02:39;;;;;;;11.00;0.98;;;11.30;99.90;;;;;;5023144;28;20045;-66
2023/12/25 03:05:05;;;;;;;16.80;1.42;;;11.20;99.90;;;;;;5055894;28;20052;-67
2023/12/25 03:07:31;;;;;;;9.57;0.95;;;11.20;99.90;;;;;;5058464;28;20351;-66
2023/12/25 03:09:57;;;;;;;11.30;1.00;;;11.20;99.90;;;;;;5041318;28;20047;-67
2023/12/25 03:12:22;;;;;;;12.13;1.02;;;11.20;99.90;;;;;;5039569;28;20045;-66
2023/12/25 03:14:48;;;;;;;7.88;0.90;;;11.20;99.90;;;;;;5038098;28;20481;-67
2023/12/25 03:17:14;;;;;;;11.95;1.23;;;11.30;99.90;;;;;;5008558;28;20032;-67
2023/12/25 03:19:40;;;;;;;11.10;0.90;;;11.30;99.90;;;;;;5058715;28;20453;-66
2023/12/25 03:22:05;;;;;;;14.38;1.83;;;11.30;99.90;;;;;;5020039;28;20045;-66
2023/12/25 03:24:32;;;;;;;16.10;1.85;;;11.30;99.90;;;;;;5058630;28;21021;-67
2023/12/25 03:26:58;;;;;;;14.70;1.30;;;11.20;99.90;;;;;;5054892;28;20040;-66
2023/12/25 03:29:24;;;;;;;14.35;1.58;;;11.10;99.90;;;;;;5057701;28;20043;-67
2023/12/25 03:31:49;;;;;;;11.20;1.20;;;11.10;99.90;;;;;;5057297;28;20040;-66
2023/12/25 03:34:18;;;;;;;16.20;1.67;;;11.00;99.90;;;;;;5055831;28;20048;-67
2023/12/25 03:36:44;;;;;;;12.13;1.33;;;11.00;99.90;;;;;;5055755;28;20094;-67
2023/12/25 03:39:10;;;;;;;14.10;1.35;;;10.90;99.90;;;;;;5055612;28;20382;-66
2023/12/25 03:41:36;;;;;;;17.73;2.30;;;10.90;99.90;;;;;;5055846;28;20041;-66
2023/12/25 03:44:02;;;;;;;13.30;1.80;;;10.90;99.90;;;;;;5055112;28;20461;-67
2023/12/25 03:46:29;;;;;;;14.57;1.35;;;10.90;99.90;;;;;;5021943;28;20193;-66
2023/12/25 03:48:54;;;;;;;13.70;1.77;;;10.90;99.90;;;;;;5054962;28;20036;-66
2023/12/25 03:51:20;;;;;;;18.10;1.80;;;11.00;99.90;;;;;;5057603;28;20036;-66
2023/12/25 03:53:46;;;;;;;12.35;1.50;;;11.00;99.90;;;;;;5037660;28;20067;-66
2023/12/25 03:56:18;;;;;;;15.23;0.95;;;11.00;99.90;;;;;;5054400;28;20040;-66
2023/12/25 03:58:44;;;;;;;12.82;1.30;;;11.10;99.90;;;;;;5056412;28;20044;-66
2023/12/25 04:01:10;;;;;;;21.30;1.67;;;11.10;99.90;;;;;;5054914;28;20045;-66
2023/12/25 04:03:36;;;;;;;13.27;1.80;;;11.10;99.90;;;;;;5036774;28;20474;-66
2023/12/25 04:06:03;;;;;;;17.08;1.90;;;11.10;99.90;;;;;;5039881;28;20624;-66
2023/12/25 04:08:28;;;;;;;12.18;1.50;;;11.00;99.90;;;;;;5054973;28;20406;-66
2023/12/25 04:10:54;;;;;;;12.20;1.23;;;11.00;99.90;;;;;;5037425;28;20045;-66
2023/12/25 04:13:20;;;;;;;10.65;1.60;;;11.00;99.90;;;;;;5057545;28;20048;-66
2023/12/25 04:15:46;;;;;;;13.40;1.10;;;11.00;99.90;;;;;;5039519;28;20578;-66
2023/12/25 04:18:12;;;;;;;14.77;1.25;;;11.00;99.90;;;;;;5055788;28;20088;-66
2023/12/25 04:20:39;;;;;;;13.52;1.60;;;11.00;99.90;;;;;;5019511;28;20379;-67
2023/12/25 04:23:05;;;;;;;10.15;1.20;;;11.00;99.90;;;;;;5055486;28;20048;-66
2023/12/25 04:25:30;;;;;;;16.17;1.10;;;11.00;99.90;;;;;;5040041;28;20043;-68
2023/12/25 04:27:56;;;;;;;15.45;1.40;;;11.00;99.90;;;;;;5054960;28;20040;-66
2023/12/25 04:30:22;;;;;;;14.88;1.90;;;11.00;99.90;;;;;;5054757;28;20332;-66
2023/12/25 04:32:48;;;;;;;10.60;1.02;;;11.00;99.90;;;;;;5051744;28;20526;-66
2023/12/25 04:35:14;;;;;;;12.70;1.52;;;10.90;99.90;;;;;;5057064;28;20071;-66
2023/12/25 04:37:39;;;;;;;11.98;1.20;;;10.90;99.90;;;;;;5055075;28;20043;-66
2023/12/25 04:40:06;;;;;;;13.35;1.63;;;10.90;99.90;;;;;;5054322;28;20081;-66
2023/12/25 04:42:31;;;;;;;11.82;1.23;;;10.90;99.90;;;;;;5035988;28;20651;-66
2023/12/25 04:44:57;;;;;;;14.07;1.75;;;10.90;99.90;;;;;;5038725;28;20318;-66
2023/12/25 04:47:23;;;;;;;12.00;1.30;;;10.90;99.90;;;;;;5054122;28;20434;-65
2023/12/25 04:49:49;;;;;;;13.13;1.70;;;10.90;99.90;;;;;;5056356;28;20041;-66
2023/12/25 04:52:14;;;;;;;14.25;1.38;;;11.00;99.90;;;;;;5038480;28;20051;-66
2023/12/25 04:54:40;;;;;;;11.13;0.85;;;10.90;99.90;;;;;;5037746;28;20047;-66
2023/12/25 04:57:06;;;;;;;9.80;0.93;;;10.90;99.90;;;;;;5059277;28;20051;-66
2023/12/25 04:59:31;;;;;;;14.57;1.20;;;11.00;99.90;;;;;;5044421;28;20108;-66
2023/12/25 05:02:00;;;;;;;7.43;0.88;;;11.00;99.90;;;;;;5053822;28;20045;-68
2023/12/25 05:04:26;;;;;;;11.98;1.23;;;11.00;99.90;;;;;;5040362;28;20248;-67
2023/12/25 05:06:52;;;;;;;14.27;1.30;;;10.90;99.90;;;;;;5041228;28;20523;-67
2023/12/25 05:09:19;;;;;;;16.55;1.80;;;11.00;99.90;;;;;;5021731;28;20037;-66
2023/12/25 05:11:44;;;;;;;15.38;1.98;;;10.90;99.90;;;;;;5058613;28;20703;-65
2023/12/25 05:14:10;;;;;;;14.38;1.13;;;10.90;99.90;;;;;;5057207;28;20079;-66
2023/12/25 05:16:36;;;;;;;15.35;1.88;;;10.90;99.90;;;;;;5073402;28;20044;-65
2023/12/25 05:19:02;;;;;;;13.65;1.70;;;10.90;99.90;;;;;;5056077;28;20129;-66
2023/12/25 05:21:27;;;;;;;14.00;1.40;;;10.90;99.90;;;;;;5052929;28;20127;-65
2023/12/25 05:23:53;;;;;;;17.02;1.80;;;10.90;99.90;;;;;;5037299;28;20500;-66
2023/12/25 05:26:20;;;;;;;14.45;1.48;;;10.80;99.90;;;;;;5042965;28;20036;-66
2023/12/25 05:28:46;;;;;;;11.07;1.15;;;10.80;99.90;;;;;;5042916;28;20231;-66
2023/12/25 05:31:13;;;;;;;11.23;1.13;;;10.80;99.90;;;;;;5041721;28;20490;-66
2023/12/25 05:33:39;;;;;;;13.52;1.27;;;10.80;99.90;;;;;;5037396;28;20048;-66
2023/12/25 05:36:05;;;;;;;16.13;1.80;;;10.80;99.90;;;;;;5047127;28;20320;-66
2023/12/25 05:38:30;;;;;;;12.93;1.27;;;10.80;99.90;;;;;;5058901;28;20097;-66
2023/12/25 05:40:56;;;;;;;11.95;1.58;;;10.80;99.90;;;;;;5038747;28;20048;-66
2023/12/25 05:43:22;;;;;;;15.30;1.55;;;10.80;99.90;;;;;;5055105;28;20037;-67
2023/12/25 05:45:47;;;;;;;12.75;1.45;;;10.80;99.90;;;;;;5024304;28;20036;-67
2023/12/25 05:48:13;;;;;;;16.35;1.63;;;10.80;99.90;;;;;;5051536;28;20173;-66
2023/12/25 05:50:39;;;;;;;13.07;1.20;;;10.80;99.90;;;;;;5060131;28;20362;-66
2023/12/25 05:53:05;;;;;;;14.57;1.17;;;10.80;99.90;;;;;;5062808;28;20093;-66
2023/12/25 05:55:31;;;;;;;12.50;1.67;;;10.80;99.90;;;;;;5062425;28;20054;-66
2023/12/25 05:57:57;;;;;;;14.60;1.50;;;10.80;99.90;;;;;;5036910;28;20458;-67
2023/12/25 06:00:23;;;;;;;13.20;1.00;;;10.80;99.90;;;;;;5059782;28;20953;-66
2023/12/25 06:02:48;;;;;;;11.65;1.10;;;10.80;99.90;;;;;;5039690;28;20036;-67
2023/12/25 06:05:14;;;;;;;16.70;1.60;;;10.80;99.90;;;;;;5055203;28;20083;-66
2023/12/25 06:07:41;;;;;;;11.90;1.58;;;10.80;99.90;;;;;;5024051;28;20265;-67
2023/12/25 06:10:07;;;;;;;13.00;1.60;;;10.70;99.90;;;;;;5039383;28;20044;-67
2023/12/25 06:12:32;;;;;;;13.13;1.27;;;10.70;99.90;;;;;;5039497;28;20040;-68
2023/12/25 06:14:58;;;;;;;14.80;1.63;;;10.70;99.90;;;;;;5057046;28;20274;-65
2023/12/25 06:17:24;;;;;;;17.73;1.85;;;10.70;99.90;;;;;;5042074;28;20724;-66
2023/12/25 06:19:50;;;;;;;14.18;1.65;;;10.70;99.90;;;;;;5002939;28;20528;-66
2023/12/25 06:22:15;;;;;;;14.20;1.98;;;10.60;99.90;;;;;;5035141;28;20223;-66
2023/12/25 06:24:41;;;;;;;13.23;1.70;;;10.60;99.90;;;;;;5058162;28;20296;-65
2023/12/25 06:27:07;;;;;;;15.60;1.63;;;10.60;99.90;;;;;;5018423;28;20036;-65
2023/12/25 06:29:33;;;;;;;9.70;1.23;;;10.60;99.90;;;;;;5038080;28;20081;-65
2023/12/25 06:31:58;;;;;;;11.85;0.93;;;10.60;99.90;;;;;;5058544;28;20383;-66
2023/12/25 06:34:24;;;;;;;11.82;1.35;;;10.60;99.90;;;;;;5040930;28;20154;-65
2023/12/25 06:36:50;;;;;;;15.13;1.50;;;10.60;99.90;;;;;;5040152;28;20044;-67
2023/12/25 06:39:16;;;;;;;9.38;0.98;;;10.60;99.90;;;;;;5055490;28;20091;-65
2023/12/25 06:41:42;;;;;;;10.07;1.00;;;10.50;99.90;;;;;;5024538;28;20205;-66
2023/12/25 06:44:08;;;;;;;10.88;1.60;;;10.50;99.90;;;;;;5039063;28;20036;-66
2023/12/25 06:46:36;;;;;;;18.02;1.83;;;10.40;99.90;;;;;;5041554;28;20546;-66
2023/12/25 06:49:01;;;;;;;14.35;1.30;;;10.40;99.90;;;;;;5056247;28;20383;-65
2023/12/25 06:51:27;;;;;;;11.68;1.35;;;10.40;99.90;;;;;;5057990;28;20048;-66
2023/12/25 06:53:53;;;;;;;15.98;1.63;;;10.30;99.90;;;;;;5056317;28;20124;-66
2023/12/25 06:56:19;;;;;;;15.38;1.95;;;10.30;99.90;;;;;;5058060;28;20059;-66
2023/12/25 06:58:45;;;;;;;17.33;1.55;;;10.20;99.90;;;;;;5057579;28;20052;-66
2023/12/25 07:01:11;;;;;;;11.95;1.23;;;10.20;99.90;;;;;;5040136;28;20058;-66
2023/12/25 07:03:37;;;;;;;16.38;1.40;;;10.20;99.90;;;;;;5057679;28;20309;-66
2023/12/25 07:06:03;;;;;;;15.63;1.73;;;10.20;99.90;;;;;;5024217;28;20514;-67
2023/12/25 07:08:28;;;;;;;15.93;1.60;;;10.20;99.90;;;;;;5057326;28;20498;-68
2023/12/25 07:10:57;;;;;;;18.38;1.73;;;10.20;99.90;;;;;;5056283;28;20048;-65
2023/12/25 07:13:23;;;;;;;10.85;1.30;;;10.10;99.90;;;;;;5041641;28;20042;-65
2023/12/25 07:15:49;;;;;;;17.35;1.70;;;10.10;99.90;;;;;;5038150;28;20389;-66
2023/12/25 07:18:14;;;;;;;16.40;1.40;;;10.10;99.90;;;;;;5024876;28;20044;-66
2023/12/25 07:20:40;;;;;;;16.60;1.65;;;10.10;99.90;;;;;;5058263;28;20394;-66
2023/12/25 07:23:06;;;;;;;18.08;1.80;;;10.10;99.90;;;;;;5039389;28;20123;-66
2023/12/25 07:25:32;;;;;;;14.48;2.03;;;10.10;99.90;;;;;;5040619;28;20036;-66
2023/12/25 07:27:57;;;;;;;11.00;1.17;;;10.20;99.90;;;;;;5039252;28;20041;-67
2023/12/25 07:30:23;;;;;;;14.60;1.90;;;10.20;99.90;;;;;;5022518;28;20398;-66
2023/12/25 07:32:49;;;;;;;17.52;1.58;;;10.20;99.90;;;;;;5038508;28;20258;-65
2023/12/25 07:35:15;;;;;;;18.10;2.08;;;10.10;99.90;;;;;;5039345;28;20044;-66
2023/12/25 07:37:41;;;;;;;6.82;0.32;;;10.10;99.90;;;;;;5055352;28;20048;-66
2023/12/25 07:40:07;;;;;;;4.82;0.30;;;10.00;99.90;;;;;;5036700;28;20573;-66
2023/12/25 07:42:33;;;;;;;5.53;0.30;;;9.90;99.90;;;;;;5036780;28;20227;-65
2023/12/25 07:44:58;;;;;;;6.13;0.30;;;9.60;99.90;;;;;;5039207;28;20478;-66
2023/12/25 07:47:24;;;;;;;5.40;0.30;;;9.40;99.90;;;;;;5060389;28;20575;-66
2023/12/25 07:49:51;;;;;;;5.00;0.40;;;9.20;99.90;;;;;;5034145;28;20228;-66
2023/12/25 07:52:17;;;;;;;5.25;0.40;;;9.10;99.90;;;;;;5054528;28;20036;-66
2023/12/25 07:54:43;;;;;;;4.63;0.22;;;9.10;99.90;;;;;;5051445;28;20056;-66
2023/12/25 07:57:08;;;;;;;7.55;0.40;;;9.00;99.90;;;;;;5054840;28;20498;-66
2023/12/25 07:59:34;;;;;;;9.68;0.47;;;9.00;99.90;;;;;;5052005;28;20123;-68
2023/12/25 08:02:00;;;;;;;9.65;0.38;;;9.10;99.90;;;;;;5037398;28;20037;-66
2023/12/25 08:04:26;;;;;;;6.18;0.40;;;9.20;99.90;;;;;;5053906;28;20538;-66
2023/12/25 08:06:52;;;;;;;7.25;0.50;;;9.20;99.90;;;;;;5032799;28;20040;-66
2023/12/25 08:09:17;;;;;;;3.42;0.30;;;9.30;99.90;;;;;;5038435;28;20335;-66
2023/12/25 08:11:43;;;;;;;6.55;0.30;;;9.30;99.90;;;;;;5055311;28;20356;-66
2023/12/25 08:14:09;;;;;;;6.65;0.50;;;9.40;99.90;;;;;;5038015;28;20546;-66
2023/12/25 08:16:35;;;;;;;5.80;0.22;;;9.40;99.90;;;;;;5056407;28;20275;-66
2023/12/25 08:19:01;;;;;;;6.32;0.50;;;9.40;99.90;;;;;;5038052;28;20036;-66
2023/12/25 08:21:26;;;;;;;7.75;0.80;;;9.40;99.90;;;;;;5043233;28;20363;-66
2023/12/25 08:23:52;;;;;;;9.63;0.68;;;9.40;99.90;;;;;;5035782;28;20111;-66
2023/12/25 08:26:18;;;;;;;6.18;0.80;;;9.50;99.90;;;;;;5037209;28;20574;-66
2023/12/25 08:28:46;;;;;;;8.15;0.70;;;9.40;99.90;;;;;;5059377;28;20073;-67
2023/12/25 08:31:12;;;;;;;6.50;0.52;;;9.40;99.90;;;;;;5062355;28;20052;-67
2023/12/25 08:33:37;;;;;;;5.15;0.70;;;9.40;99.90;;;;;;5043710;28;20041;-66
2023/12/25 08:36:03;;;;;;;7.72;0.55;;;9.50;99.90;;;;;;5025664;28;20044;-66
2023/12/25 08:38:29;;;;;;;11.55;1.00;;;9.50;99.90;;;;;;5023594;28;20110;-68
2023/12/25 08:40:55;;;;;;;7.63;0.65;;;9.40;99.90;;;;;;5060354;28;20461;-66
2023/12/25 08:43:21;;;;;;;12.10;1.15;;;9.50;99.90;;;;;;5042975;28;20037;-66
2023/12/25 08:45:46;;;;;;;10.40;0.90;;;9.50;99.90;;;;;;5009770;28;20132;-66
2023/12/25 08:48:12;;;;;;;12.07;1.15;;;9.60;99.90;;;;;;5057680;28;20032;-66
2023/12/25 08:50:38;;;;;;;12.52;1.17;;;9.70;99.90;;;;;;5040455;28;20047;-67
2023/12/25 08:53:04;;;;;;;15.10;1.30;;;9.70;99.90;;;;;;5065149;28;20435;-67
2023/12/25 08:55:29;;;;;;;15.57;1.33;;;9.70;99.90;;;;;;5061592;28;20097;-67
2023/12/25 08:57:55;;;;;;;14.07;1.50;;;9.70;99.90;;;;;;5022853;28;20044;-66
2023/12/25 09:00:21;;;;;;;16.05;1.67;;;9.70;99.90;;;;;;5037249;28;20044;-66
2023/12/25 09:02:46;;;;;;;15.63;1.85;;;9.70;99.90;;;;;;5021904;28;20407;-67
2023/12/25 09:05:13;;;;;;;11.50;1.38;;;9.70;99.90;;;;;;5058962;28;20357;-67
2023/12/25 09:07:38;;;;;;;13.75;1.17;;;9.70;99.90;;;;;;5058619;28;20043;-67
2023/12/25 09:10:06;;;;;;;12.10;1.20;;;9.80;99.90;;;;;;5054077;28;20109;-67
2023/12/25 09:12:33;;;;;;;11.02;1.10;;;9.70;99.90;;;;;;5038849;28;20040;-67
2023/12/25 09:14:59;;;;;;;12.57;1.25;;;9.70;99.90;;;;;;5058492;28;20058;-67
2023/12/25 09:17:24;;;;;;;19.23;2.00;;;9.70;99.90;;;;;;5042339;28;20039;-67
2023/12/25 09:19:50;;;;;;;14.10;1.13;;;9.60;99.90;;;;;;5060535;28;20040;-67
2023/12/25 09:22:17;;;;;;;19.02;1.77;;;9.70;99.90;;;;;;5045289;28;20407;-67
2023/12/25 09:24:44;;;;;;;15.38;1.30;;;9.70;99.90;;;;;;5040093;28;20032;-67
2023/12/25 09:27:10;;;;;;;14.80;1.50;;;9.60;99.90;;;;;;5054618;28;20465;-68
2023/12/25 09:29:36;;;;;;;15.55;1.60;;;9.70;99.90;;;;;;5060709;28;20057;-67
2023/12/25 09:32:03;;;;;;;11.88;1.52;;;9.70;99.90;;;;;;5056649;28;20048;-67
2023/12/25 09:34:29;;;;;;;12.80;1.42;;;9.70;99.90;;;;;;5061952;28;20080;-67
2023/12/25 09:36:56;;;;;;;12.20;1.52;;;9.70;99.90;;;;;;5059059;28;20187;-67
2023/12/25 09:39:22;;;;;;;10.10;1.20;;;9.70;99.90;;;;;;5062449;28;20047;-67
2023/12/25 09:41:48;;;;;;;14.27;1.45;;;9.70;99.90;;;;;;5057276;28;20044;-67
2023/12/25 09:44:14;;;;;;;8.60;0.73;;;9.70;99.90;;;;;;5040572;28;20064;-67
2023/12/25 09:46:40;;;;;;;13.52;1.15;;;9.70;99.90;;;;;;5061433;28;20120;-67
2023/12/25 09:49:06;;;;;;;12.70;1.00;;;9.70;99.90;;;;;;5040901;28;20204;-67
2023/12/25 09:51:36;;;;;;;14.40;1.50;;;9.70;99.90;;;;;;5056378;28;20106;-67
2023/12/25 09:54:02;;;;;;;10.90;1.00;;;9.70;99.90;;;;;;5038833;28;20055;-67
2023/12/25 09:56:32;;;;;;;11.65;1.15;;;9.70;99.90;;;;;;5021981;28;20142;-66
2023/12/25 09:58:58;;;;;;;12.35;1.17;;;9.80;99.90;;;;;;5019756;28;20234;-66
2023/12/25 10:01:26;;;;;;;11.93;0.95;;;9.80;99.90;;;;;;5019256;28;20130;-66
2023/12/25 10:03:52;;;;;;;14.40;1.15;;;9.80;99.90;;;;;;5015484;28;20066;-67
2023/12/25 10:06:21;;;;;;;9.98;0.95;;;9.80;99.90;;;;;;5042564;28;20446;-67
2023/12/25 10:08:47;;;;;;;14.57;1.65;;;9.90;99.90;;;;;;5059137;28;20032;-66
2023/12/25 10:11:13;;;;;;;12.73;1.45;;;10.00;99.90;;;;;;5039140;28;20042;-66
2023/12/25 10:13:43;;;;;;;13.27;1.08;;;10.10;99.90;;;;;;5038873;28;20032;-66
2023/12/25 10:16:09;;;;;;;14.70;1.90;;;10.20;99.90;;;;;;5042308;28;20186;-67
2023/12/25 10:18:39;;;;;;;13.95;1.40;;;10.40;99.90;;;;;;5050124;28;20529;-66
2023/12/25 10:21:06;;;;;;;15.65;1.90;;;10.40;99.90;;;;;;5051849;28;20094;-66
2023/12/25 10:23:33;;;;;;;17.02;1.85;;;10.50;99.90;;;;;;5055997;28;20063;-66
2023/12/25 10:26:03;;;;;;;13.88;1.23;;;10.50;99.90;;;;;;5060173;28;20039;-66
2023/12/25 10:28:32;;;;;;;13.88;1.90;;;10.40;99.90;;;;;;5058754;28;20035;-66
2023/12/25 10:31:06;;;;;;;14.52;1.20;;;10.40;99.90;;;;;;5021897;28;20037;-66
2023/12/25 10:33:33;;;;;;;16.05;1.55;;;10.40;99.90;;;;;;5042090;28;20698;-66
2023/12/25 10:36:11;;;;;;;13.35;1.23;;;10.40;99.90;;;;;;5058391;28;20111;-67
2023/12/25 10:38:40;;;;;;;14.30;1.60;;;10.40;99.90;;;;;;5056232;28;20518;-66
2023/12/25 10:41:31;;;;;;;15.52;1.20;;;10.60;99.90;;;;;;5037854;28;20052;-65
2023/12/25 10:43:58;;;;;;;15.05;1.45;;;10.80;99.90;;;;;;5054436;28;20036;-66
2023/12/25 10:46:34;;;;;;;13.88;1.42;;;10.90;99.90;;;;;;5058383;28;20186;-66
2023/12/25 10:49:01;;;;;;;14.05;1.60;;;10.90;99.90;;;;;;5026376;28;20491;-65
2023/12/25 10:51:31;;;;;;;14.68;1.42;;;11.10;99.90;;;;;;5056148;28;20059;-66
2023/12/25 10:54:03;;;;;;;13.00;1.20;;;11.00;99.90;;;;;;5019601;28;20048;-66
2023/12/25 10:56:33;;;;;;;13.75;1.15;;;10.90;99.90;;;;;;5058674;28;20298;-67
2023/12/25 10:59:24;;;;;;;18.23;1.80;;;10.70;99.90;;;;;;5023974;28;20510;-66
2023/12/25 11:01:51;;;;;;;15.57;1.80;;;10.50;99.90;;;;;;5041674;28;20290;-67
2023/12/25 11:04:18;;;;;;;21.17;2.17;;;10.40;99.90;;;;;;5025708;28;20415;-66
2023/12/25 11:06:45;;;;;;;16.88;1.98;;;10.40;99.90;;;;;;5043507;28;20247;-66
2023/12/25 11:09:17;;;;;;;19.90;1.67;;;10.40;99.90;;;;;;5062280;28;20044;-66
2023/12/25 11:11:44;;;;;;;17.42;1.42;;;10.40;99.90;;;;;;5051660;28;20468;-66
2023/12/25 11:14:11;;;;;;;15.48;1.83;;;10.30;99.90;;;;;;5065054;28;20059;-66
2023/12/25 11:16:37;;;;;;;15.25;1.33;;;10.30;99.90;;;;;;5053962;28;20159;-66
2023/12/25 11:19:04;;;;;;;19.60;1.77;;;10.30;99.90;;;;;;5057770;28;20044;-67
2023/12/25 11:21:33;;;;;;;15.57;1.92;;;10.40;99.90;;;;;;5038901;28;20237;-66
2023/12/25 11:24:02;;;;;;;15.27;1.70;;;10.40;99.90;;;;;;5040099;28;20044;-66
2023/12/25 11:26:28;;;;;;;15.18;1.23;;;10.50;99.90;;;;;;5061813;28;20089;-66
2023/12/25 11:28:58;;;;;;;17.00;1.80;;;10.50;99.90;;;;;;5036825;28;20076;-66
2023/12/25 11:31:27;;;;;;;19.67;1.88;;;10.60;99.90;;;;;;5052080;28;20441;-67
2023/12/25 11:33:53;;;;;;;16.35;1.55;;;10.50;99.90;;;;;;5056300;28;20067;-66
2023/12/25 11:36:19;;;;;;;13.07;1.75;;;10.50;99.90;;;;;;5053198;28;20123;-67
2023/12/25 11:38:53;;;;;;;15.65;1.77;;;10.50;99.90;;;;;;5057577;28;20163;-67
2023/12/25 11:41:19;;;;;;;15.13;1.63;;;10.50;99.90;;;;;;5055802;28;20712;-67
2023/12/25 11:43:49;;;;;;;16.80;1.67;;;10.50;99.90;;;;;;5040230;28;20039;-67
2023/12/25 11:46:19;;;;;;;16.52;1.67;;;10.50;99.90;;;;;;5055801;28;20040;-67
2023/12/25 11:48:47;;;;;;;13.68;1.63;;;10.50;99.90;;;;;;5055965;28;20045;-67
2023/12/25 11:51:26;;;;;;;15.63;1.75;;;10.50;99.90;;;;;;5058586;28;20469;-68
2023/12/25 11:53:57;;;;;;;15.98;1.70;;;10.50;99.90;;;;;;5049682;28;20082;-67
2023/12/25 11:56:24;;;;;;;16.65;2.05;;;10.50;99.90;;;;;;5058514;28;20449;-67
2023/12/25 11:58:51;;;;;;;15.95;1.80;;;10.60;99.90;;;;;;5059916;28;20033;-67
2023/12/25 12:01:17;;;;;;;20.75;2.47;;;10.50;99.90;;;;;;5040636;28;20293;-68
2023/12/25 12:03:48;;;;;;;19.42;2.28;;;10.50;99.90;;;;;;5054804;28;20044;-67
2023/12/25 12:06:19;;;;;;;18.33;2.30;;;10.60;99.90;;;;;;5012900;28;20041;-68
2023/12/25 12:08:47;;;;;;;12.68;1.75;;;10.50;99.90;;;;;;5016260;28;20423;-67
2023/12/25 12:11:14;;;;;;;17.65;2.47;;;10.40;99.90;;;;;;5011443;28;20049;-67
2023/12/25 12:13:40;;;;;;;16.30;1.33;;;10.40;99.90;;;;;;4999143;28;20557;-67
2023/12/25 12:16:06;;;;;;;15.20;1.25;;;10.40;99.90;;;;;;5000123;28;20260;-67
2023/12/25 12:18:34;;;;;;;12.90;1.50;;;10.40;99.90;;;;;;4998504;28;20342;-67
2023/12/25 12:21:00;;;;;;;17.52;1.85;;;10.40;99.90;;;;;;5015210;28;20052;-68
2023/12/25 12:23:31;;;;;;;15.43;1.33;;;10.50;99.90;;;;;;4996514;28;20263;-67
2023/12/25 12:25:57;;;;;;;12.55;1.20;;;10.50;99.90;;;;;;5000014;28;20116;-67
2023/12/25 12:28:23;;;;;;;11.30;0.95;;;10.50;99.90;;;;;;5028271;28;20049;-67
2023/12/25 12:30:49;;;;;;;15.10;1.20;;;10.50;99.90;;;;;;5016265;28;20519;-68
2023/12/25 12:33:16;;;;;;;12.63;1.23;;;10.50;99.90;;;;;;4998595;28;20036;-67
2023/12/25 12:35:42;;;;;;;15.10;1.20;;;10.50;99.90;;;;;;4996474;28;20042;-67
2023/12/25 12:38:12;;;;;;;14.43;1.30;;;10.50;99.90;;;;;;5001420;28;20049;-67